createdAt,value
2019-03-12T00:01:23.495Z,50.01
2019-03-12T00:03:51.707Z,50.02
2019-03-12T00:06:20.482Z,50.02
2019-03-12T00:08:48.658Z,50.04
2019-03-12T00:11:16.736Z,50.04
2019-03-12T00:13:44.949Z,50.05
2019-03-12T00:16:13.005Z,50.05
2019-03-12T00:18:41.119Z,50.04
2019-03-12T00:21:09.496Z,50.10
2019-03-12T00:23:37.789Z,50.12
2019-03-12T00:26:06.207Z,50.16
2019-03-12T00:28:34.297Z,50.24
2019-03-12T00:31:02.509Z,50.27
2019-03-12T00:33:30.666Z,50.29
2019-03-12T00:35:59.084Z,50.31
2019-03-12T00:38:28.122Z,50.33
2019-03-12T00:40:56.282Z,50.31
2019-03-12T00:43:25.492Z,50.35
2019-03-12T00:45:53.541Z,50.35
2019-03-12T00:48:21.967Z,50.34
2019-03-12T00:50:51.103Z,50.36
2019-03-12T00:53:19.534Z,50.40
2019-03-12T00:55:48.702Z,50.42
2019-03-12T00:58:16.814Z,50.45
2019-03-12T01:00:44.849Z,50.48
2019-03-12T01:03:13.029Z,50.51
2019-03-12T01:05:41.162Z,50.54
2019-03-12T01:08:09.268Z,50.57
2019-03-12T01:10:37.477Z,50.58
2019-03-12T01:13:17.372Z,50.59
2019-03-12T01:15:45.571Z,50.63
2019-03-12T01:18:14.023Z,50.63
2019-03-12T01:20:42.310Z,50.63
2019-03-12T01:23:10.405Z,50.68
2019-03-12T01:25:39.969Z,50.71
2019-03-12T01:28:08.085Z,50.72
2019-03-12T01:30:36.307Z,50.74
2019-03-12T01:33:04.368Z,50.75
2019-03-12T01:35:32.558Z,50.74
2019-03-12T01:38:01.843Z,50.75
2019-03-12T01:40:30.811Z,50.75
2019-03-12T01:42:58.972Z,50.75
2019-03-12T01:45:27.060Z,50.76
2019-03-12T01:47:55.129Z,50.76
2019-03-12T01:50:23.182Z,50.77
2019-03-12T01:52:52.541Z,50.79
2019-03-12T01:55:20.615Z,50.79
2019-03-12T01:57:48.800Z,50.78
2019-03-12T02:00:17.045Z,50.81
2019-03-12T02:02:45.182Z,50.79
2019-03-12T02:05:15.828Z,50.79
2019-03-12T02:07:45.450Z,50.82
2019-03-12T02:10:15.259Z,50.85
2019-03-12T02:12:43.303Z,50.93
2019-03-12T02:15:12.047Z,50.95
2019-03-12T02:17:41.114Z,51.02
2019-03-12T02:20:12.246Z,51.01
2019-03-12T02:22:40.687Z,51.00
2019-03-12T02:25:11.017Z,51.00
2019-03-12T02:27:40.878Z,51.01
2019-03-12T02:30:12.385Z,51.05
2019-03-12T02:32:44.407Z,51.05
2019-03-12T02:35:18.016Z,51.06
2019-03-12T02:37:47.182Z,51.10
2019-03-12T02:40:17.136Z,51.13
2019-03-12T02:42:45.210Z,51.16
2019-03-12T02:45:14.006Z,51.18
2019-03-12T02:47:42.497Z,51.18
2019-03-12T02:50:12.980Z,51.22
2019-03-12T02:52:41.134Z,51.22
2019-03-12T02:55:09.425Z,51.25
2019-03-12T02:57:37.889Z,51.24
2019-03-12T03:00:13.697Z,51.23
2019-03-12T03:02:41.863Z,51.24
2019-03-12T03:05:10.224Z,51.23
2019-03-12T03:08:09.900Z,51.22
2019-03-12T03:10:37.975Z,51.23
2019-03-12T03:13:08.245Z,51.20
2019-03-12T03:15:40.210Z,51.21
2019-03-12T03:18:08.684Z,51.19
2019-03-12T03:20:36.762Z,51.21
2019-03-12T03:23:05.099Z,51.23
2019-03-12T03:25:33.194Z,51.26
2019-03-12T03:28:01.210Z,51.26
2019-03-12T03:30:30.654Z,51.29
2019-03-12T03:32:59.129Z,51.31
2019-03-12T03:35:27.228Z,51.31
2019-03-12T03:37:55.466Z,51.33
2019-03-12T03:40:23.715Z,51.33
2019-03-12T03:42:51.872Z,51.31
2019-03-12T03:45:20.504Z,51.30
2019-03-12T03:47:50.287Z,51.31
2019-03-12T03:50:18.454Z,51.32
2019-03-12T03:52:46.735Z,51.33
2019-03-12T03:55:15.913Z,51.33
2019-03-12T03:57:44.165Z,51.28
2019-03-12T04:00:21.093Z,51.25
2019-03-12T04:02:50.222Z,51.23
2019-03-12T04:05:18.741Z,51.25
2019-03-12T04:07:47.192Z,51.26
2019-03-12T04:10:15.524Z,51.29
2019-03-12T04:12:43.585Z,51.30
2019-03-12T04:15:13.770Z,51.33
2019-03-12T04:17:41.833Z,51.36
2019-03-12T04:20:10.026Z,51.39
2019-03-12T04:22:38.426Z,51.41
2019-03-12T04:25:06.810Z,51.40
2019-03-12T04:27:34.893Z,51.43
2019-03-12T04:30:03.429Z,51.43
2019-03-12T04:32:32.997Z,51.47
2019-03-12T04:35:03.267Z,51.46
2019-03-12T04:37:31.386Z,51.47
2019-03-12T04:40:02.466Z,51.48
2019-03-12T04:42:31.730Z,51.50
2019-03-12T04:45:01.361Z,51.50
2019-03-12T04:47:30.208Z,51.52
2019-03-12T04:49:58.300Z,51.54
2019-03-12T04:52:26.414Z,51.57
2019-03-12T04:54:54.490Z,51.62
2019-03-12T04:57:24.038Z,51.64
2019-03-12T04:59:52.237Z,51.67
2019-03-12T05:02:20.427Z,51.68
2019-03-12T05:04:48.813Z,51.70
2019-03-12T05:07:16.979Z,51.72
2019-03-12T05:09:45.085Z,51.74
2019-03-12T05:12:15.196Z,51.74
2019-03-12T05:14:45.014Z,51.76
2019-03-12T05:17:25.068Z,51.77
2019-03-12T05:19:53.232Z,51.77
2019-03-12T05:22:23.756Z,51.80
2019-03-12T05:24:51.819Z,51.77
2019-03-12T05:27:20.031Z,51.80
2019-03-12T05:29:48.110Z,51.82
2019-03-12T05:32:16.254Z,51.84
2019-03-12T05:34:44.394Z,51.84
2019-03-12T05:37:14.386Z,51.85
2019-03-12T05:39:42.452Z,51.83
2019-03-12T05:42:12.455Z,51.85
2019-03-12T05:44:41.796Z,51.84
2019-03-12T05:47:10.858Z,51.84
2019-03-12T05:49:39.127Z,51.87
2019-03-12T05:52:07.729Z,51.87
2019-03-12T05:54:36.005Z,51.89
2019-03-12T05:57:04.183Z,51.90
2019-03-12T05:59:32.403Z,51.93
2019-03-12T06:02:01.534Z,51.94
2019-03-12T06:04:29.696Z,51.96
2019-03-12T06:06:57.820Z,52.00
2019-03-12T06:09:30.393Z,52.05
2019-03-12T06:11:56.641Z,52.08
2019-03-12T06:14:24.961Z,52.10
2019-03-12T06:16:53.024Z,52.12
2019-03-12T06:19:21.430Z,52.18
2019-03-12T06:21:49.543Z,52.20
2019-03-12T06:24:19.412Z,52.24
2019-03-12T06:26:48.694Z,52.24
2019-03-12T06:29:17.048Z,52.27
2019-03-12T06:32:07.570Z,52.30
2019-03-12T06:34:45.345Z,52.33
2019-03-12T06:37:39.051Z,52.35
2019-03-12T06:40:33.427Z,52.36
2019-03-12T06:43:10.616Z,52.39
2019-03-12T06:45:58.359Z,52.42
2019-03-12T06:48:41.659Z,52.45
2019-03-12T06:51:36.927Z,52.43
2019-03-12T06:54:20.415Z,52.42
2019-03-12T06:57:17.148Z,52.43
2019-03-12T06:59:52.925Z,52.42
2019-03-12T07:02:43.957Z,52.39
2019-03-12T07:05:30.690Z,52.39
2019-03-12T07:08:25.527Z,52.38
2019-03-12T07:11:15.787Z,52.36
2019-03-12T07:13:53.559Z,52.35
2019-03-12T07:16:39.658Z,52.32
2019-03-12T07:19:24.438Z,52.28
2019-03-12T07:22:27.639Z,52.22
2019-03-12T07:25:13.907Z,52.19
2019-03-12T07:28:01.623Z,52.15
2019-03-12T07:30:55.570Z,52.13
2019-03-12T07:33:30.440Z,52.13
2019-03-12T07:36:11.084Z,52.08
2019-03-12T07:38:50.772Z,52.07
2019-03-12T07:41:41.477Z,52.05
2019-03-12T07:44:16.662Z,52.01
2019-03-12T07:47:03.080Z,51.99
2019-03-12T07:50:01.802Z,51.97
2019-03-12T07:52:52.606Z,51.96
2019-03-12T07:55:42.660Z,51.87
2019-03-12T07:58:35.231Z,51.74
2019-03-12T08:01:05.454Z,51.58
2019-03-12T08:03:45.676Z,51.37
2019-03-12T08:06:32.269Z,51.18
2019-03-12T08:09:13.365Z,51.12
2019-03-12T08:11:56.333Z,50.95
2019-03-12T08:14:53.535Z,50.78
2019-03-12T08:17:56.312Z,50.69
2019-03-12T08:20:42.114Z,50.62
2019-03-12T08:23:36.148Z,50.52
2019-03-12T08:26:16.276Z,50.26
2019-03-12T08:29:04.011Z,49.97
2019-03-12T08:31:46.612Z,49.71
2019-03-12T08:34:40.498Z,49.57
2019-03-12T08:37:23.045Z,49.46
2019-03-12T08:40:20.459Z,49.41
2019-03-12T08:43:11.519Z,49.47
2019-03-12T08:45:53.757Z,49.55
2019-03-12T08:48:31.720Z,49.57
2019-03-12T08:51:07.525Z,49.33
2019-03-12T08:53:53.651Z,49.21
2019-03-12T08:56:52.177Z,49.29
2019-03-12T08:59:38.615Z,49.26
2019-03-12T09:02:17.153Z,49.30
2019-03-12T09:05:05.897Z,49.19
2019-03-12T09:07:52.943Z,49.02
2019-03-12T09:10:41.083Z,49.00
2019-03-12T09:13:34.525Z,49.09
2019-03-12T09:16:17.014Z,48.95
2019-03-12T09:19:06.135Z,48.85
2019-03-12T09:21:48.093Z,48.71
2019-03-12T09:24:34.386Z,48.51
2019-03-12T09:27:27.979Z,48.33
2019-03-12T09:30:08.674Z,48.38
2019-03-12T09:33:05.785Z,48.27
2019-03-12T09:35:39.344Z,48.17
2019-03-12T09:38:21.590Z,48.06
2019-03-12T09:41:21.266Z,48.32
2019-03-12T09:44:14.982Z,48.25
2019-03-12T09:47:06.645Z,48.07
2019-03-12T09:50:00.775Z,47.95
2019-03-12T09:53:00.999Z,47.84
2019-03-12T09:56:07.902Z,47.80
2019-03-12T09:58:54.567Z,47.80
2019-03-12T10:01:39.470Z,47.60
2019-03-12T10:04:27.340Z,47.33
2019-03-12T10:07:18.078Z,47.17
2019-03-12T10:10:08.765Z,47.18
2019-03-12T10:12:45.438Z,47.07
2019-03-12T10:15:33.250Z,46.96
2019-03-12T10:18:26.957Z,46.83
2019-03-12T10:21:03.931Z,47.02
2019-03-12T10:23:53.049Z,47.09
2019-03-12T10:26:31.228Z,46.81
2019-03-12T10:29:17.173Z,46.81
2019-03-12T10:31:57.523Z,46.85
2019-03-12T10:34:48.357Z,46.91
2019-03-12T10:37:29.973Z,46.88
2019-03-12T10:40:17.554Z,46.89
2019-03-12T10:43:35.212Z,46.82
2019-03-12T10:46:10.671Z,46.88
2019-03-12T10:48:39.900Z,46.89
2019-03-12T10:51:08.334Z,46.89
2019-03-12T10:53:36.425Z,46.86
2019-03-12T10:56:04.487Z,46.74
2019-03-12T10:58:33.860Z,46.71
2019-03-12T11:01:06.035Z,46.61
2019-03-12T11:03:34.170Z,46.42
2019-03-12T11:06:02.348Z,46.42
2019-03-12T11:08:31.841Z,46.35
2019-03-12T11:11:00.288Z,46.31
2019-03-12T11:13:28.478Z,46.19
2019-03-12T11:15:56.645Z,46.06
2019-03-12T11:18:25.154Z,45.94
2019-03-12T11:20:53.256Z,45.75
2019-03-12T11:23:21.341Z,45.65
2019-03-12T11:25:49.534Z,45.59
2019-03-12T11:28:18.449Z,45.44
2019-03-12T11:30:46.629Z,45.42
2019-03-12T11:33:16.084Z,45.45
2019-03-12T11:35:44.421Z,45.36
2019-03-12T11:38:13.678Z,45.21
2019-03-12T11:40:41.745Z,45.17
2019-03-12T11:43:09.802Z,44.91
2019-03-12T11:45:38.654Z,44.84
2019-03-12T11:48:07.772Z,44.73
2019-03-12T11:50:36.259Z,44.70
2019-03-12T11:53:05.797Z,44.67
2019-03-12T11:55:34.080Z,44.60
2019-03-12T11:58:02.226Z,44.46
2019-03-12T12:00:43.407Z,44.43
2019-03-12T12:03:11.759Z,44.56
2019-03-12T12:05:40.513Z,44.65
2019-03-12T12:08:08.564Z,44.61
2019-03-12T12:10:37.245Z,44.47
2019-03-12T12:13:05.619Z,44.14
2019-03-12T12:15:33.848Z,44.03
2019-03-12T12:18:02.281Z,43.83
2019-03-12T12:20:30.631Z,43.75
2019-03-12T12:22:59.256Z,43.71
2019-03-12T12:25:27.441Z,43.59
2019-03-12T12:27:55.888Z,43.43
2019-03-12T12:30:25.319Z,43.35
2019-03-12T12:32:54.698Z,43.29
2019-03-12T12:35:22.771Z,43.13
2019-03-12T12:37:52.124Z,43.08
2019-03-12T12:40:21.669Z,43.01
2019-03-12T12:42:50.134Z,42.86
2019-03-12T12:45:19.291Z,42.74
2019-03-12T12:47:47.572Z,42.64
2019-03-12T12:50:16.284Z,42.51
2019-03-12T12:52:45.586Z,42.44
2019-03-12T12:55:14.018Z,42.44
2019-03-12T12:57:42.089Z,42.50
2019-03-12T13:00:16.751Z,42.49
2019-03-12T13:02:44.806Z,42.41
2019-03-12T13:05:13.724Z,42.46
2019-03-12T13:07:41.925Z,42.38
2019-03-12T13:10:14.546Z,42.17
2019-03-12T13:12:42.624Z,42.06
2019-03-12T13:15:10.937Z,41.99
2019-03-12T13:17:39.924Z,41.81
2019-03-12T13:20:08.181Z,41.60
2019-03-12T13:22:36.357Z,41.46
2019-03-12T13:25:06.798Z,41.33
2019-03-12T13:27:42.346Z,41.20
2019-03-12T13:30:06.644Z,40.90
2019-03-12T13:32:35.042Z,40.69
2019-03-12T13:35:04.311Z,40.53
2019-03-12T13:37:32.480Z,40.29
2019-03-12T13:40:01.106Z,40.21
2019-03-12T13:42:31.317Z,40.12
2019-03-12T13:45:01.426Z,40.11
2019-03-12T13:47:30.209Z,40.11
2019-03-12T13:49:58.498Z,39.95
2019-03-12T13:52:27.208Z,39.83
2019-03-12T13:54:55.289Z,39.90
2019-03-12T13:57:23.409Z,39.95
2019-03-12T13:59:52.575Z,39.85
2019-03-12T14:02:21.696Z,39.68
2019-03-12T14:04:49.773Z,39.43
2019-03-12T14:07:17.824Z,39.32
2019-03-12T14:09:46.067Z,39.13
2019-03-12T14:12:14.814Z,39.05
2019-03-12T14:14:44.542Z,38.96
2019-03-12T14:17:14.136Z,38.88
2019-03-12T14:19:42.336Z,38.76
2019-03-12T14:22:10.440Z,38.70
2019-03-12T14:24:38.986Z,38.75
2019-03-12T14:27:07.245Z,38.88
2019-03-12T14:29:35.332Z,38.98
2019-03-12T14:32:04.398Z,38.85
2019-03-12T14:34:32.592Z,38.85
2019-03-12T14:37:00.811Z,38.78
2019-03-12T14:39:29.186Z,38.83
2019-03-12T14:41:57.308Z,38.89
2019-03-12T14:44:25.777Z,38.83
2019-03-12T14:46:53.975Z,38.74
2019-03-12T14:49:22.493Z,38.73
2019-03-12T14:52:28.165Z,38.66
2019-03-12T14:54:56.603Z,38.67
2019-03-12T14:57:24.749Z,38.79
2019-03-12T14:59:53.118Z,38.73
2019-03-12T15:02:24.235Z,38.69
2019-03-12T15:04:53.755Z,38.76
2019-03-12T15:07:22.939Z,38.78
2019-03-12T15:09:51.124Z,38.72
2019-03-12T15:12:20.585Z,38.71
2019-03-12T15:14:48.750Z,38.63
2019-03-12T15:17:17.065Z,38.70
2019-03-12T15:19:45.170Z,38.66
2019-03-12T15:22:13.487Z,38.70
2019-03-12T15:24:41.529Z,38.77
2019-03-12T15:27:09.669Z,38.78
2019-03-12T15:29:39.609Z,38.76
2019-03-12T15:32:08.140Z,38.78
2019-03-12T15:34:36.653Z,38.74
2019-03-12T15:37:04.919Z,38.73
2019-03-12T15:39:33.196Z,38.74
2019-03-12T15:42:13.811Z,38.77
2019-03-12T15:44:42.122Z,38.74
2019-03-12T15:47:10.239Z,38.82
2019-03-12T15:49:42.825Z,38.84
2019-03-12T15:52:09.480Z,38.85
2019-03-12T15:54:37.554Z,38.82
2019-03-12T15:57:05.630Z,38.88
2019-03-12T15:59:33.715Z,38.91
2019-03-12T16:02:01.858Z,38.97
2019-03-12T16:04:29.921Z,38.96
2019-03-12T16:07:01.631Z,38.97
2019-03-12T16:09:28.293Z,38.97
2019-03-12T16:11:56.347Z,38.98
2019-03-12T16:14:36.937Z,38.93
2019-03-12T16:17:05.184Z,38.94
2019-03-12T16:19:33.308Z,38.95
2019-03-12T16:22:01.719Z,38.94
2019-03-12T16:24:29.877Z,38.95
2019-03-12T16:26:57.947Z,38.93
2019-03-12T16:29:26.091Z,38.93
2019-03-12T16:31:54.344Z,38.90
2019-03-12T16:34:22.987Z,38.84
2019-03-12T16:36:51.378Z,38.80
2019-03-12T16:39:19.585Z,38.78
2019-03-12T16:41:49.633Z,38.76
2019-03-12T16:44:17.797Z,38.73
2019-03-12T16:46:46.015Z,38.72
2019-03-12T16:49:14.232Z,38.76
2019-03-12T16:51:42.385Z,38.80
2019-03-12T16:54:10.471Z,38.78
2019-03-12T16:56:45.091Z,38.76
2019-03-12T16:59:09.035Z,38.78
2019-03-12T17:01:37.832Z,38.76
2019-03-12T17:04:06.066Z,38.77
2019-03-12T17:06:34.174Z,38.77
2019-03-12T17:09:05.017Z,38.74
2019-03-12T17:11:35.043Z,38.72
2019-03-12T17:14:03.374Z,38.70
2019-03-12T17:16:31.633Z,38.70
2019-03-12T17:18:59.722Z,38.68
2019-03-12T17:21:29.115Z,38.63
2019-03-12T17:23:57.470Z,38.61
2019-03-12T17:26:25.559Z,38.68
2019-03-12T17:28:53.662Z,38.69
2019-03-12T17:31:21.840Z,38.64
2019-03-12T17:33:50.282Z,38.63
2019-03-12T17:36:18.461Z,38.63
2019-03-12T17:38:47.369Z,38.59
2019-03-12T17:41:15.581Z,38.56
2019-03-12T17:43:43.777Z,38.56
2019-03-12T17:46:11.832Z,38.52
2019-03-12T17:48:39.937Z,38.50
2019-03-12T17:51:08.254Z,38.48
2019-03-12T17:53:37.361Z,38.48
2019-03-12T17:56:05.445Z,38.49
2019-03-12T17:58:33.510Z,38.53
2019-03-12T18:01:01.869Z,38.52
2019-03-12T18:03:30.028Z,38.47
2019-03-12T18:05:58.090Z,38.43
2019-03-12T18:08:26.159Z,38.43
2019-03-12T18:10:54.662Z,38.44
2019-03-12T18:13:24.040Z,38.42
2019-03-12T18:15:52.233Z,38.43
2019-03-12T18:18:22.603Z,38.42
2019-03-12T18:20:50.673Z,38.40
2019-03-12T18:23:18.893Z,38.39
2019-03-12T18:25:47.149Z,38.38
2019-03-12T18:28:15.289Z,38.36
2019-03-12T18:30:43.382Z,38.31
2019-03-12T18:33:11.607Z,38.29
2019-03-12T18:35:40.399Z,38.24
2019-03-12T18:38:08.496Z,38.22
2019-03-12T18:40:36.631Z,38.17
2019-03-12T18:43:04.882Z,38.13
2019-03-12T18:45:33.120Z,38.15
2019-03-12T18:48:01.186Z,38.13
2019-03-12T18:50:29.550Z,38.09
2019-03-12T18:52:57.611Z,38.09
2019-03-12T18:56:01.199Z,38.05
2019-03-12T18:58:29.745Z,38.07
2019-03-12T19:01:03.964Z,38.07
2019-03-12T19:03:32.506Z,38.08
2019-03-12T19:06:00.733Z,38.09
2019-03-12T19:08:28.955Z,38.07
2019-03-12T19:10:57.173Z,38.07
2019-03-12T19:13:26.456Z,38.08
2019-03-12T19:15:54.787Z,38.09
2019-03-12T19:18:24.728Z,38.06
2019-03-12T19:20:53.273Z,38.03
2019-03-12T19:23:21.755Z,38.07
2019-03-12T19:25:50.278Z,38.06
2019-03-12T19:28:18.410Z,38.01
2019-03-12T19:30:48.560Z,38.00
2019-03-12T19:33:18.557Z,37.97
2019-03-12T19:35:46.773Z,37.93
2019-03-12T19:38:15.109Z,37.89
2019-03-12T19:40:44.668Z,37.86
2019-03-12T19:43:13.034Z,37.84
2019-03-12T19:45:42.429Z,37.81
2019-03-12T19:48:12.251Z,37.78
2019-03-12T19:50:41.808Z,37.74
2019-03-12T19:53:09.868Z,37.68
2019-03-12T19:55:41.623Z,37.60
2019-03-12T19:58:11.252Z,37.58
2019-03-12T20:00:40.494Z,37.51
2019-03-12T20:03:12.029Z,37.45
2019-03-12T20:05:39.304Z,37.38
2019-03-12T20:08:08.009Z,37.30
2019-03-12T20:11:34.002Z,37.21
2019-03-12T20:15:16.545Z,37.15
2019-03-12T20:18:53.622Z,37.14
2019-03-12T20:22:26.183Z,37.16
2019-03-12T20:26:15.865Z,37.17
2019-03-12T20:29:42.531Z,37.21
2019-03-12T20:33:32.938Z,37.15
2019-03-12T20:36:56.539Z,37.15
2019-03-12T20:40:14.988Z,37.16
2019-03-12T20:43:56.355Z,37.07
2019-03-12T20:47:38.351Z,37.05
2019-03-12T20:50:57.799Z,37.02
2019-03-12T20:54:45.713Z,36.93
2019-03-12T20:58:32.494Z,36.86
2019-03-12T21:02:28.971Z,36.80
2019-03-12T21:05:53.677Z,36.76
2019-03-12T21:09:53.546Z,36.73
2019-03-12T21:13:25.689Z,36.67
2019-03-12T21:17:04.587Z,36.67
2019-03-12T21:20:49.214Z,36.66
2019-03-12T21:24:20.048Z,36.67
2019-03-12T21:27:33.596Z,36.71
2019-03-12T21:30:00.266Z,36.71
2019-03-12T21:32:29.829Z,36.69
2019-03-12T21:34:58.331Z,36.63
2019-03-12T21:37:26.474Z,36.57
2019-03-12T21:39:56.200Z,36.48
2019-03-12T21:42:25.962Z,36.46
2019-03-12T21:44:54.019Z,36.42
2019-03-12T21:47:22.122Z,36.38
2019-03-12T21:49:50.193Z,36.32
2019-03-12T21:52:18.285Z,36.30
2019-03-12T21:54:46.697Z,36.29
2019-03-12T21:57:15.475Z,36.24
2019-03-12T21:59:43.620Z,36.23
2019-03-12T22:02:12.043Z,36.20
2019-03-12T22:04:40.518Z,36.21
2019-03-12T22:07:08.699Z,36.17
2019-03-12T22:09:37.143Z,36.17
2019-03-12T22:12:05.399Z,36.16
2019-03-12T22:14:33.577Z,36.17
2019-03-12T22:17:02.323Z,36.18
2019-03-12T22:19:30.525Z,36.17
2019-03-12T22:22:21.267Z,36.20
2019-03-12T22:24:49.333Z,36.17
2019-03-12T22:27:17.444Z,36.20
2019-03-12T22:29:45.521Z,36.21
2019-03-12T22:32:13.640Z,36.21
2019-03-12T22:34:42.035Z,36.19
2019-03-12T22:37:10.144Z,36.22
2019-03-12T22:39:38.997Z,36.26
2019-03-12T22:42:07.431Z,36.32
2019-03-12T22:44:35.508Z,36.39
2019-03-12T22:47:03.593Z,36.40
2019-03-12T22:49:32.635Z,36.46
2019-03-12T22:52:00.748Z,36.50
2019-03-12T22:54:28.793Z,36.52
2019-03-12T22:56:57.966Z,36.69
2019-03-12T22:59:44.684Z,36.89
2019-03-12T23:02:31.143Z,37.01
2019-03-12T23:05:18.026Z,37.21
2019-03-12T23:08:04.943Z,37.50
2019-03-12T23:10:35.038Z,37.66
2019-03-12T23:13:03.315Z,37.84
2019-03-12T23:15:32.580Z,38.03
2019-03-12T23:18:02.565Z,38.15
2019-03-12T23:20:30.923Z,38.21
2019-03-12T23:22:59.210Z,38.33
2019-03-12T23:25:28.696Z,38.46
2019-03-12T23:27:57.539Z,38.56
2019-03-12T23:30:28.868Z,38.66
2019-03-12T23:32:57.708Z,38.73
2019-03-12T23:35:26.071Z,38.84
2019-03-12T23:37:54.151Z,38.92
2019-03-12T23:40:22.248Z,39.03
2019-03-12T23:42:50.790Z,39.15
2019-03-12T23:45:19.743Z,39.27
2019-03-12T23:47:50.346Z,39.34
2019-03-12T23:50:18.373Z,39.40
2019-03-12T23:52:46.630Z,39.44
2019-03-12T23:55:15.723Z,39.52
2019-03-12T23:57:43.826Z,39.52
